createdAt,value
2022-10-28T00:02:09.696Z,58.07
2022-10-28T00:04:39.014Z,58.13
2022-10-28T00:07:06.863Z,57.92
2022-10-28T00:09:34.688Z,58.17
2022-10-28T00:12:02.585Z,58.31
2022-10-28T00:14:30.459Z,58.32
2022-10-28T00:16:58.317Z,58.10
2022-10-28T00:19:26.165Z,58.14
2022-10-28T00:21:55.405Z,58.19
2022-10-28T00:24:24.748Z,57.88
2022-10-28T00:26:52.623Z,58.00
2022-10-28T00:29:20.798Z,58.23
2022-10-28T00:31:48.800Z,58.03
2022-10-28T00:34:17.567Z,57.98
2022-10-28T00:36:46.228Z,57.74
2022-10-28T00:39:16.258Z,57.75
2022-10-28T00:41:45.262Z,57.90
2022-10-28T00:44:50.545Z,57.69
2022-10-28T00:47:20.382Z,57.66
2022-10-28T00:49:48.428Z,57.80
2022-10-28T00:52:19.293Z,57.76
2022-10-28T00:54:48.582Z,57.57
2022-10-28T00:57:17.384Z,57.36
2022-10-28T00:59:46.563Z,57.35
2022-10-28T01:02:14.606Z,57.42
2022-10-28T01:04:42.692Z,57.54
2022-10-28T01:07:10.876Z,57.66
2022-10-28T01:09:38.861Z,57.59
2022-10-28T01:12:11.519Z,57.63
2022-10-28T01:14:47.087Z,57.44
2022-10-28T01:17:25.824Z,57.67
2022-10-28T01:20:27.051Z,57.71
2022-10-28T01:22:56.730Z,57.62
2022-10-28T01:26:00.791Z,57.62
2022-10-28T01:28:52.713Z,57.65
2022-10-28T01:31:26.845Z,57.63
2022-10-28T01:33:56.010Z,57.48
2022-10-28T01:36:28.911Z,57.79
2022-10-28T01:38:58.746Z,57.77
2022-10-28T01:41:29.876Z,57.85
2022-10-28T01:44:00.361Z,57.84
2022-10-28T01:46:30.185Z,57.79
2022-10-28T01:48:59.004Z,57.83
2022-10-28T01:51:28.340Z,58.08
2022-10-28T01:53:57.555Z,57.70
2022-10-28T01:56:27.018Z,58.14
2022-10-28T01:58:55.512Z,58.23
2022-10-28T02:01:23.656Z,58.13
2022-10-28T02:03:53.191Z,58.06
2022-10-28T02:06:22.454Z,58.35
2022-10-28T02:09:03.902Z,58.49
2022-10-28T02:11:48.027Z,58.59
2022-10-28T02:14:23.104Z,58.86
2022-10-28T02:16:53.072Z,58.78
2022-10-28T02:19:27.893Z,59.13
2022-10-28T02:22:01.253Z,59.21
2022-10-28T02:24:33.785Z,59.47
2022-10-28T02:27:03.820Z,59.68
2022-10-28T02:29:33.031Z,59.80
2022-10-28T02:32:02.779Z,59.97
2022-10-28T02:34:33.257Z,59.99
2022-10-28T02:37:02.299Z,59.94
2022-10-28T02:39:31.829Z,59.96
2022-10-28T02:42:01.379Z,60.32
2022-10-28T02:44:30.296Z,60.53
2022-10-28T02:46:59.885Z,60.56
2022-10-28T02:49:27.918Z,60.65
2022-10-28T02:51:58.738Z,61.02
2022-10-28T02:54:28.149Z,61.06
2022-10-28T02:56:58.377Z,60.92
2022-10-28T02:59:26.643Z,61.01
2022-10-28T03:01:54.674Z,61.07
2022-10-28T03:04:22.661Z,61.12
2022-10-28T03:06:50.505Z,61.10
2022-10-28T03:09:19.772Z,61.18
2022-10-28T03:11:47.645Z,61.11
2022-10-28T03:14:15.608Z,61.24
2022-10-28T03:16:43.547Z,61.37
2022-10-28T03:19:11.449Z,61.45
2022-10-28T03:21:39.309Z,61.89
2022-10-28T03:24:07.921Z,61.65
2022-10-28T03:26:37.231Z,62.13
2022-10-28T03:29:05.085Z,61.91
2022-10-28T03:31:33.014Z,61.95
2022-10-28T03:34:00.902Z,61.87
2022-10-28T03:36:28.781Z,61.95
2022-10-28T03:38:56.640Z,62.39
2022-10-28T03:41:24.495Z,62.22
2022-10-28T03:43:53.723Z,62.37
2022-10-28T03:46:21.577Z,62.40
2022-10-28T03:48:49.425Z,62.58
2022-10-28T03:51:17.296Z,62.66
2022-10-28T03:53:45.193Z,62.56
2022-10-28T03:56:13.041Z,62.70
2022-10-28T03:58:41.422Z,62.99
2022-10-28T04:01:10.878Z,62.81
2022-10-28T04:03:39.432Z,63.18
2022-10-28T04:06:09.956Z,63.31
2022-10-28T04:08:37.851Z,63.36
2022-10-28T04:11:05.979Z,63.00
2022-10-28T04:13:33.882Z,63.29
2022-10-28T04:16:02.605Z,63.22
2022-10-28T04:18:31.987Z,63.27
2022-10-28T04:20:59.877Z,63.49
2022-10-28T04:23:27.741Z,63.75
2022-10-28T04:25:55.729Z,63.80
2022-10-28T04:28:24.435Z,63.82
2022-10-28T04:30:52.279Z,63.86
2022-10-28T04:33:20.141Z,63.65
2022-10-28T04:35:49.429Z,63.42
2022-10-28T04:38:17.345Z,63.45
2022-10-28T04:40:45.208Z,63.49
2022-10-28T04:43:13.078Z,63.51
2022-10-28T04:45:40.906Z,63.33
2022-10-28T04:48:10.002Z,63.06
2022-10-28T04:50:37.901Z,63.02
2022-10-28T04:53:07.104Z,62.81
2022-10-28T04:55:34.947Z,63.01
2022-10-28T04:58:02.899Z,62.53
2022-10-28T05:00:30.817Z,62.58
2022-10-28T05:02:58.802Z,62.75
2022-10-28T05:05:26.906Z,62.37
2022-10-28T05:07:55.188Z,62.15
2022-10-28T05:10:24.586Z,62.01
2022-10-28T05:12:52.478Z,62.03
2022-10-28T05:15:20.339Z,62.12
2022-10-28T05:17:48.386Z,62.16
2022-10-28T05:20:17.827Z,62.03
2022-10-28T05:22:49.072Z,61.85
2022-10-28T05:25:17.105Z,62.09
2022-10-28T05:27:46.385Z,61.95
2022-10-28T05:30:14.571Z,61.74
2022-10-28T05:32:42.515Z,61.44
2022-10-28T05:35:10.970Z,61.51
2022-10-28T05:37:38.832Z,61.65
2022-10-28T05:40:07.614Z,61.91
2022-10-28T05:42:35.561Z,62.01
2022-10-28T05:45:05.224Z,61.15
2022-10-28T05:47:35.290Z,61.17
2022-10-28T05:50:06.058Z,61.32
2022-10-28T05:52:33.915Z,61.36
2022-10-28T05:55:01.780Z,61.68
2022-10-28T05:57:29.620Z,61.39
2022-10-28T05:59:57.465Z,61.70
2022-10-28T06:02:26.746Z,61.46
2022-10-28T06:04:54.613Z,61.60
2022-10-28T06:07:22.465Z,61.76
2022-10-28T06:09:50.791Z,61.73
2022-10-28T06:12:17.160Z,61.66
2022-10-28T06:14:45.035Z,61.91
2022-10-28T06:17:13.004Z,61.89
2022-10-28T06:19:42.298Z,61.88
2022-10-28T06:22:10.197Z,62.42
2022-10-28T06:24:38.057Z,62.01
2022-10-28T06:27:06.596Z,61.85
2022-10-28T06:29:34.517Z,62.42
2022-10-28T06:32:02.424Z,62.54
2022-10-28T06:34:30.305Z,62.33
2022-10-28T06:36:59.581Z,62.23
2022-10-28T06:39:28.382Z,62.52
2022-10-28T06:41:56.304Z,62.25
2022-10-28T06:44:24.144Z,62.26
2022-10-28T06:46:53.574Z,62.19
2022-10-28T06:49:21.484Z,62.50
2022-10-28T06:51:49.896Z,62.55
2022-10-28T06:54:19.166Z,62.52
2022-10-28T06:56:48.360Z,62.22
2022-10-28T06:59:16.654Z,62.41
2022-10-28T07:01:44.639Z,62.31
2022-10-28T07:04:13.082Z,62.01
2022-10-28T07:06:41.139Z,62.17
2022-10-28T07:09:08.991Z,62.34
2022-10-28T07:11:38.210Z,62.70
2022-10-28T07:14:06.036Z,62.39
2022-10-28T07:16:33.970Z,62.27
2022-10-28T07:19:01.887Z,62.20
2022-10-28T07:21:29.902Z,61.95
2022-10-28T07:23:57.800Z,62.11
2022-10-28T07:26:26.058Z,62.05
2022-10-28T07:28:55.278Z,62.27
2022-10-28T07:31:23.225Z,62.43
2022-10-28T07:33:53.223Z,62.16
2022-10-28T07:36:21.133Z,61.61
2022-10-28T07:38:51.519Z,61.57
2022-10-28T07:41:19.532Z,61.63
2022-10-28T07:43:47.532Z,61.72
2022-10-28T07:46:16.845Z,61.95
2022-10-28T07:48:44.768Z,61.94
2022-10-28T07:51:13.805Z,62.25
2022-10-28T07:53:41.852Z,62.13
2022-10-28T07:56:13.246Z,61.73
2022-10-28T07:58:41.570Z,61.73
2022-10-28T08:01:10.113Z,62.07
2022-10-28T08:03:40.453Z,61.79
2022-10-28T08:06:09.414Z,61.73
2022-10-28T08:08:37.300Z,61.67
2022-10-28T08:11:12.107Z,61.73
2022-10-28T08:13:40.261Z,61.61
2022-10-28T08:16:10.868Z,61.40
2022-10-28T08:18:40.286Z,61.62
2022-10-28T08:21:08.939Z,61.27
2022-10-28T08:23:38.280Z,61.67
2022-10-28T08:26:06.450Z,61.68
2022-10-28T08:28:34.304Z,61.22
2022-10-28T08:31:09.924Z,61.24
2022-10-28T08:33:39.574Z,61.26
2022-10-28T08:36:08.456Z,61.62
2022-10-28T08:38:36.293Z,61.35
2022-10-28T08:41:09.840Z,61.47
2022-10-28T08:43:56.736Z,61.50
2022-10-28T08:46:29.156Z,61.48
2022-10-28T08:48:58.398Z,61.26
2022-10-28T08:51:30.049Z,60.98
2022-10-28T08:53:59.653Z,60.89
2022-10-28T08:56:30.857Z,61.25
2022-10-28T08:59:00.363Z,60.95
2022-10-28T09:01:34.948Z,60.78
2022-10-28T09:04:07.284Z,60.58
2022-10-28T09:06:35.223Z,60.36
2022-10-28T09:09:03.564Z,60.48
2022-10-28T09:11:42.610Z,60.28
2022-10-28T09:14:25.392Z,60.24
2022-10-28T09:16:57.768Z,60.10
2022-10-28T09:19:34.904Z,60.25
2022-10-28T09:22:09.321Z,60.17
2022-10-28T09:24:43.334Z,60.16
2022-10-28T09:27:14.059Z,59.76
2022-10-28T10:22:30.446Z,58.88
2022-10-28T10:24:58.399Z,58.01
2022-10-28T10:27:26.925Z,57.56
2022-10-28T10:29:54.824Z,57.29
2022-10-28T10:32:24.231Z,57.19
2022-10-28T10:34:58.580Z,57.21
2022-10-28T10:37:41.992Z,57.81
2022-10-28T10:40:19.342Z,58.50
2022-10-28T10:42:57.642Z,59.65
2022-10-28T10:45:36.215Z,59.20
2022-10-28T10:48:11.230Z,58.74
2022-10-28T10:50:39.324Z,57.68
2022-10-28T10:53:08.595Z,56.54
2022-10-28T10:55:37.945Z,56.25
2022-10-28T10:58:06.435Z,55.06
2022-10-28T11:00:37.112Z,53.14
2022-10-28T11:03:05.816Z,52.54
2022-10-28T11:05:38.136Z,51.24
2022-10-28T11:08:08.016Z,50.55
2022-10-28T11:10:36.408Z,48.97
2022-10-28T11:13:06.508Z,49.05
2022-10-28T11:15:34.462Z,48.00
2022-10-28T11:18:03.550Z,46.55
2022-10-28T11:20:40.821Z,46.30
2022-10-28T11:23:30.038Z,47.03
2022-10-28T11:26:00.352Z,47.56
2022-10-28T11:28:38.380Z,47.72
2022-10-28T11:31:17.644Z,48.00
2022-10-28T11:33:47.642Z,49.73
2022-10-28T11:36:19.370Z,50.73
2022-10-28T11:39:26.036Z,50.21
2022-10-28T11:42:09.772Z,48.23
2022-10-28T11:44:45.290Z,47.95
2022-10-28T11:47:41.854Z,46.61
2022-10-28T11:50:24.391Z,46.94
2022-10-28T11:53:05.403Z,46.03
2022-10-28T11:55:36.556Z,45.10
2022-10-28T11:58:11.202Z,44.82
2022-10-28T12:00:44.792Z,43.25
2022-10-28T12:03:25.589Z,43.22
2022-10-28T12:05:56.267Z,42.68
2022-10-28T12:08:33.640Z,43.23
2022-10-28T12:11:18.693Z,43.93
2022-10-28T12:13:49.878Z,44.45
2022-10-28T12:16:19.535Z,43.56
2022-10-28T12:18:51.332Z,43.16
2022-10-28T12:21:28.822Z,42.29
2022-10-28T12:23:57.053Z,43.06
2022-10-28T12:26:35.556Z,43.55
2022-10-28T12:29:04.700Z,44.08
2022-10-28T12:31:35.309Z,43.00
2022-10-28T12:34:05.559Z,41.20
2022-10-28T12:36:36.317Z,39.51
2022-10-28T12:39:05.668Z,39.29
2022-10-28T12:41:46.971Z,40.75
2022-10-28T12:44:15.701Z,41.09
2022-10-28T12:49:25.368Z,41.79
2022-10-28T12:51:53.375Z,41.71
2022-10-28T12:54:24.412Z,42.17
2022-10-28T12:56:55.414Z,42.72
2022-10-28T12:59:25.961Z,42.00
2022-10-28T13:01:53.953Z,41.07
2022-10-28T13:04:22.081Z,40.89
2022-10-28T13:07:09.350Z,41.87
2022-10-28T13:09:42.578Z,41.94
2022-10-28T13:12:48.249Z,40.51
2022-10-28T13:15:26.871Z,39.11
2022-10-28T13:18:12.123Z,40.31
2022-10-28T13:20:44.747Z,41.35
2022-10-28T13:23:17.768Z,41.73
2022-10-28T13:26:09.310Z,41.86
2022-10-28T13:28:47.697Z,40.98
2022-10-28T13:31:15.830Z,38.97
2022-10-28T13:33:49.247Z,38.34
2022-10-28T13:36:18.504Z,37.68
2022-10-28T13:38:51.831Z,36.77
2022-10-28T13:41:33.703Z,36.54
2022-10-28T13:44:25.038Z,37.79
2022-10-28T13:47:20.667Z,38.25
2022-10-28T13:50:30.513Z,39.17
2022-10-28T13:53:41.509Z,40.04
2022-10-28T13:56:49.700Z,41.24
2022-10-28T13:59:55.819Z,42.95
2022-10-28T14:02:35.130Z,41.57
2022-10-28T14:05:05.522Z,40.28
2022-10-28T14:07:33.785Z,38.80
2022-10-28T14:10:19.201Z,38.00
2022-10-28T14:12:48.857Z,38.93
2022-10-28T14:15:22.095Z,40.97
2022-10-28T14:17:54.212Z,41.56
2022-10-28T14:20:33.604Z,40.71
2022-10-28T14:23:01.570Z,40.62
2022-10-28T14:26:01.141Z,39.83
2022-10-28T14:28:54.585Z,39.89
2022-10-28T14:31:43.560Z,38.55
2022-10-28T14:34:46.398Z,37.46
2022-10-28T14:37:39.835Z,37.11
2022-10-28T14:40:16.585Z,38.22
2022-10-28T14:43:00.348Z,39.14
2022-10-28T14:45:34.227Z,39.80
2022-10-28T14:48:23.016Z,40.37
2022-10-28T14:50:52.900Z,40.89
2022-10-28T14:53:26.646Z,41.39
2022-10-28T14:55:59.063Z,41.65
2022-10-28T14:58:29.903Z,42.18
2022-10-28T15:01:04.863Z,42.37
2022-10-28T15:03:32.907Z,43.02
2022-10-28T15:06:04.430Z,43.29
2022-10-28T15:08:32.334Z,43.21
2022-10-28T15:11:00.231Z,43.49
2022-10-28T15:13:28.090Z,44.11
2022-10-28T15:15:59.330Z,44.10
2022-10-28T15:18:30.188Z,44.62
2022-10-28T15:21:12.428Z,44.98
2022-10-28T15:23:40.302Z,45.04
2022-10-28T15:26:09.115Z,44.95
2022-10-28T15:28:37.552Z,45.05
2022-10-28T15:31:05.642Z,45.03
2022-10-28T15:33:34.207Z,45.49
2022-10-28T15:36:12.594Z,45.40
2022-10-28T15:38:44.930Z,45.81
2022-10-28T15:41:45.985Z,45.81
2022-10-28T15:44:32.593Z,46.05
2022-10-28T15:47:00.734Z,46.11
2022-10-28T15:49:34.005Z,46.34
2022-10-28T15:52:24.170Z,46.23
2022-10-28T15:54:56.864Z,46.56
2022-10-28T15:57:25.502Z,46.47
2022-10-28T16:00:21.699Z,46.81
2022-10-28T16:02:55.960Z,46.96
2022-10-28T16:05:47.805Z,47.09
2022-10-28T16:08:18.024Z,47.27
2022-10-28T16:10:48.207Z,47.39
2022-10-28T16:13:18.853Z,48.08
2022-10-28T16:15:47.410Z,47.91
2022-10-28T16:18:15.371Z,48.14
2022-10-28T16:20:45.043Z,48.32
2022-10-28T16:23:18.069Z,48.26
2022-10-28T16:25:47.325Z,48.60
2022-10-28T16:28:20.773Z,48.68
2022-10-28T16:30:48.963Z,48.88
2022-10-28T16:33:16.928Z,49.03
2022-10-28T16:35:44.832Z,49.20
2022-10-28T16:38:13.261Z,49.41
2022-10-28T16:40:56.592Z,49.22
2022-10-28T16:43:26.296Z,49.44
2022-10-28T16:45:55.441Z,49.46
2022-10-28T16:48:24.308Z,49.73
2022-10-28T16:50:53.049Z,49.58
2022-10-28T16:53:20.992Z,49.79
2022-10-28T16:55:48.907Z,49.62
2022-10-28T16:58:17.141Z,49.87
2022-10-28T17:00:46.886Z,49.84
2022-10-28T17:03:15.608Z,50.07
2022-10-28T17:05:44.116Z,50.06
2022-10-28T17:08:12.127Z,50.26
2022-10-28T17:10:40.978Z,50.33
2022-10-28T17:13:09.455Z,50.45
2022-10-28T17:15:37.381Z,50.63
2022-10-28T17:18:06.897Z,50.50
2022-10-28T17:20:34.839Z,50.90
2022-10-28T17:23:02.768Z,50.64
2022-10-28T17:25:30.768Z,50.98
2022-10-28T17:27:58.898Z,50.99
2022-10-28T17:30:26.940Z,51.35
2022-10-28T17:32:55.079Z,51.49
2022-10-28T17:35:25.362Z,51.25
2022-10-28T17:37:53.734Z,51.71
2022-10-28T17:40:22.095Z,51.93
2022-10-28T17:42:49.994Z,51.97
2022-10-28T17:45:21.166Z,52.22
2022-10-28T17:47:50.614Z,52.33
2022-10-28T17:50:18.583Z,52.25
2022-10-28T17:52:47.832Z,52.28
2022-10-28T17:55:15.868Z,52.47
2022-10-28T17:57:44.936Z,52.54
2022-10-28T18:00:14.016Z,52.86
2022-10-28T18:02:42.105Z,52.95
2022-10-28T18:05:11.018Z,52.95
2022-10-28T18:07:39.413Z,53.26
2022-10-28T18:10:13.199Z,52.99
2022-10-28T18:12:41.154Z,53.17
2022-10-28T18:15:11.046Z,53.16
2022-10-28T18:17:38.976Z,53.37
2022-10-28T18:20:08.207Z,53.42
2022-10-28T18:22:36.320Z,53.56
2022-10-28T18:25:04.455Z,53.64
2022-10-28T18:27:33.801Z,53.48
2022-10-28T18:30:01.731Z,53.37
2022-10-28T18:32:29.647Z,53.48
2022-10-28T18:34:57.575Z,53.77
2022-10-28T18:37:27.681Z,53.96
2022-10-28T18:39:55.700Z,53.91
2022-10-28T18:42:24.019Z,54.06
2022-10-28T18:44:58.470Z,53.82
2022-10-28T18:47:26.476Z,54.30
2022-10-28T18:49:54.465Z,54.41
2022-10-28T18:52:22.474Z,54.11
2022-10-28T18:54:50.320Z,54.22
2022-10-28T18:57:19.335Z,54.19
2022-10-28T19:00:16.894Z,54.59
2022-10-28T19:02:36.843Z,54.54
2022-10-28T19:05:05.521Z,54.41
2022-10-28T19:07:33.390Z,54.58
2022-10-28T19:10:01.440Z,54.51
2022-10-28T19:12:29.307Z,55.03
2022-10-28T19:14:57.345Z,54.93
2022-10-28T19:17:25.285Z,55.27
2022-10-28T19:19:54.730Z,55.12
2022-10-28T19:22:22.919Z,55.50
2022-10-28T19:24:50.815Z,55.07
2022-10-28T19:27:18.767Z,55.51
2022-10-28T19:29:47.414Z,55.42
2022-10-28T19:32:15.354Z,55.50
2022-10-28T19:34:43.247Z,55.46
2022-10-28T19:37:12.745Z,55.34
2022-10-28T19:39:40.807Z,55.70
2022-10-28T19:42:08.781Z,55.52
2022-10-28T19:44:37.391Z,55.68
2022-10-28T19:47:05.465Z,55.81
2022-10-28T19:49:39.372Z,56.04
2022-10-28T19:52:09.325Z,56.01
2022-10-28T19:54:38.670Z,56.15
2022-10-28T19:57:06.744Z,55.68
2022-10-28T19:59:34.651Z,55.59
2022-10-28T20:02:02.627Z,55.71
2022-10-28T20:04:30.623Z,55.77
2022-10-28T20:07:00.166Z,56.01
2022-10-28T20:09:29.214Z,55.84
2022-10-28T20:11:58.548Z,56.29
2022-10-28T20:14:26.534Z,56.29
2022-10-28T20:16:54.419Z,55.90
2022-10-28T20:19:22.367Z,56.00
2022-10-28T20:21:50.874Z,56.31
2022-10-28T20:24:19.766Z,56.36
2022-10-28T20:26:47.693Z,56.25
2022-10-28T20:29:16.932Z,56.22
2022-10-28T20:31:44.753Z,56.41
2022-10-28T20:34:12.623Z,56.75
2022-10-28T20:36:41.127Z,56.75
2022-10-28T20:39:12.510Z,56.98
2022-10-28T20:41:41.046Z,56.94
2022-10-28T20:44:09.251Z,57.40
2022-10-28T20:46:38.652Z,57.34
2022-10-28T20:49:07.880Z,57.18
2022-10-28T20:51:36.085Z,57.57
2022-10-28T20:54:04.024Z,57.65
2022-10-28T20:56:32.784Z,57.89
2022-10-28T20:59:00.726Z,58.29
2022-10-28T21:01:29.482Z,58.12
2022-10-28T21:03:59.524Z,58.31
2022-10-28T21:06:27.573Z,58.76
2022-10-28T21:08:56.513Z,58.90
2022-10-28T21:11:24.582Z,58.78
2022-10-28T21:13:53.277Z,58.89
2022-10-28T21:16:21.442Z,58.83
2022-10-28T21:18:49.398Z,58.86
2022-10-28T21:21:18.770Z,58.83
2022-10-28T21:23:46.681Z,58.71
2022-10-28T21:26:14.646Z,58.82
2022-10-28T21:28:42.545Z,58.78
2022-10-28T21:31:11.617Z,58.62
2022-10-28T21:33:39.694Z,58.94
2022-10-28T21:36:08.823Z,58.75
2022-10-28T21:38:38.245Z,58.63
2022-10-28T21:41:07.323Z,58.67
2022-10-28T21:43:36.521Z,58.81
2022-10-28T21:46:04.648Z,58.96
2022-10-28T21:48:32.825Z,58.75
2022-10-28T21:51:02.132Z,58.44
2022-10-28T21:53:32.509Z,58.46
2022-10-28T21:56:04.852Z,58.39
2022-10-28T21:58:32.840Z,58.48
2022-10-28T22:01:05.069Z,58.43
2022-10-28T22:03:32.954Z,58.05
2022-10-28T22:06:01.312Z,57.91
2022-10-28T22:08:29.271Z,58.10
2022-10-28T22:11:01.464Z,57.97
2022-10-28T22:13:30.860Z,57.97
2022-10-28T22:16:00.075Z,57.87
2022-10-28T22:18:28.150Z,57.90
2022-10-28T22:20:56.055Z,58.15
2022-10-28T22:23:23.994Z,58.07
2022-10-28T22:25:51.887Z,57.79
2022-10-28T22:28:19.794Z,58.10
2022-10-28T22:30:49.076Z,57.94
2022-10-28T22:33:16.924Z,58.16
2022-10-28T22:35:44.860Z,58.20
2022-10-28T22:38:12.771Z,58.01
2022-10-28T22:40:40.683Z,58.13
2022-10-28T22:43:08.568Z,58.59
2022-10-28T22:45:36.442Z,58.27
2022-10-28T22:48:05.922Z,58.75
2022-10-28T22:50:33.835Z,58.68
2022-10-28T22:53:01.960Z,58.69
2022-10-28T22:55:29.828Z,58.75
2022-10-28T22:57:58.116Z,58.52
2022-10-28T23:00:26.207Z,58.58
2022-10-28T23:02:54.568Z,58.75
2022-10-28T23:05:24.234Z,58.96
2022-10-28T23:07:52.126Z,58.65
2022-10-28T23:10:20.046Z,58.69
2022-10-28T23:12:47.918Z,59.06
2022-10-28T23:15:16.032Z,58.97
2022-10-28T23:17:43.898Z,59.09
2022-10-28T23:20:12.611Z,59.16
2022-10-28T23:22:41.963Z,59.01
2022-10-28T23:25:10.459Z,58.88
2022-10-28T23:27:39.867Z,59.19
2022-10-28T23:30:09.093Z,59.18
2022-10-28T23:32:37.017Z,59.30
2022-10-28T23:35:05.356Z,59.24
2022-10-28T23:37:33.340Z,59.29
2022-10-28T23:40:02.689Z,59.35
2022-10-28T23:42:33.648Z,59.41
2022-10-28T23:45:01.500Z,59.47
2022-10-28T23:47:29.877Z,59.20
2022-10-28T23:49:57.733Z,59.58
2022-10-28T23:52:25.697Z,59.68
2022-10-28T23:54:53.670Z,59.52
2022-10-28T23:57:22.922Z,59.30
2022-10-28T23:59:50.929Z,59.43
